Résultats

Ronde du Berlingot - Course Benjamins/ Minimes - 2 Km. Édition 2013.

2 Km
13/10/2013 à 00:00:00 - ()
42 arrivant(e)s.


 
Les autres classements de cet évènement




Place▲ Temps Dossard Nom Prenom Categ #Categ Sexe #Sexe Club Vit Moy Diplôme Partager
1 00:06:17 1180 PILLAJO ALBERTO MIM 1 M 1 U A CARPENTRAS 9.9
2 00:06:21 1172 LEGENDRE ROMAIN BEM 1 M 2 18.90
3 00:06:23 1154 BERTRAND LEO MIM 2 M 3 U A CARPENTRAS 18.80
4 00:06:25 1185 ROUX GUILLAUME BEM 2 M 4 US LE PONTET 18.70
5 00:06:38 1257 MATTERA ARNAUD MIM 3 M 5 UAO 9.9
6 00:06:42 1181 PRIEUR PIERRE MIM 4 M 6 U A CARPENTRAS 17.91
7 00:06:46 1157 BOUNEDJMA MALIK MIM 5 M 7 U A CARPENTRAS 17.73
8 00:06:48 1171 LAMBERT ROMAIN MIM 6 M 8 MTC ORANGE 17.65
9 00:06:54 1258 EL-OUAAZIZI EL-KHADIR MIM 7 M 9 17.39
10 00:07:07 1177 MATHIEU REMI MIM 8 M 10 16.86
11 00:07:09 1166 FORGEROT CLEMENT MIM 9 M 11 16.78
12 00:07:13 1163 DEGRANGE ALICIA BEF 1 F 1 16.63
13 00:07:17 1260 DEGEORGES JULIE MIF 1 F 2 16.48
14 00:07:20 1254 SIBIEUDE COLIN BEM 3 M 12 16.36
15 00:07:26 1167 FOURNIER MANON BEF 2 F 3 U A CARPENTRAS 16.14
16 00:07:29 1165 DUBOIS THEO BEM 4 M 13 U A CARPENTRAS 9.9
17 00:07:32 1161 CROS LEONTIN BEM 5 M 14 U A CARPENTRAS 15.93
18 00:07:34 1160 CROIZET THOMAS BEM 6 M 15 U A CARPENTRAS 15.86
19 00:07:36 1182 REY JEANNE MIF 2 F 4 U A CARPENTRAS 15.79
20 00:07:43 1256 LANDRIT DELPHINE BEF 3 F 5 15.55
21 00:07:49 1158 BROUSSARD CLARA MIF 3 F 6 CAP BOLLENE 15.35
22 00:07:50 1176 MATHIEU MAXIME BEM 7 M 16 15.32
23 00:07:53 1184 ROUBI GAETAN MIM 10 M 17 15.22
24 00:07:56 1259 GAMOND LUCIE MIF 4 F 7 15.13
25 00:08:00 1179 NATALONI EMMA BEF 4 F 8 APM 15.00
26 00:08:01 1186 TARICO CONSTANCE BEF 5 F 9 U A CARPENTRAS 14.97
27 00:08:10 1168 FRANCHESQUIN DAVID BEM 8 M 18 14.69
28 00:08:13 1169 GASPAR ROBIN BEM 9 M 19 MISTRAL TRIATH'CLUB 14.60
29 00:08:22 1178 MUSELET MATHILDE BEF 6 F 10 ASPTT CARPENTRAS 14.34
30 00:08:24 1159 CAYOUX AXEL BEM 10 M 20 U A CARPENTRAS 14.29
31 00:08:30 1155 BESNARD JULIETTE BEF 7 F 11 U A CARPENTRAS 9.9
32 00:08:32 1153 BERNARD JULIEN BEM 11 M 21 U A CARPENTRAS 9.9
33 00:08:44 1175 MARQUES MARINE BEF 8 F 12 U A CARPENTRAS 13.74
34 00:08:48 1252 DUCLOS MICKAEL BEM 12 M 22 13.64
35 00:08:49 1156 BONNET LOIS MIF 5 F 13 U A CARPENTRAS 13.61
36 00:08:51 1151 ANDRIEUX FLORIAN BEM 13 M 23 U A CARPENTRAS 13.56
37 00:08:54 1253 BRANCACCIO JASON BEM 14 M 24 13.48
38 00:09:05 1164 DIAZ-SERRA MELINA BEF 9 F 14 13.21
39 00:09:07 1152 BARALE MATHIAS BEM 15 M 25 13.16
40 00:09:11 1170 JULIEN CLEMENCE BEF 10 F 15 U A CARPENTRAS 9.9
41 00:09:49 1183 RICHARD ESALINE MIF 6 F 16 U A CARPENTRAS 9.9
42 00:11:08 1251 BOUGALLABA INES BEF 11 F 17 9.9